createdAt,value
2023-02-23T00:01:33.269Z,7.45
2023-02-23T00:03:36.024Z,12.68
2023-02-23T00:05:38.788Z,10.68
2023-02-23T00:07:43.792Z,10.85
2023-02-23T00:09:47.231Z,11.00
2023-02-23T00:11:50.208Z,10.90
2023-02-23T00:13:52.909Z,12.52
2023-02-23T00:15:56.999Z,15.55
2023-02-23T00:17:59.935Z,14.18
2023-02-23T00:20:07.567Z,14.48
2023-02-23T00:22:10.498Z,19.02
2023-02-23T00:24:15.514Z,25.40
2023-02-23T00:26:20.788Z,24.13
2023-02-23T00:28:23.878Z,15.80
2023-02-23T00:30:26.698Z,14.52
2023-02-23T00:32:31.043Z,15.70
2023-02-23T00:34:35.680Z,16.40
2023-02-23T00:36:39.879Z,15.57
2023-02-23T00:38:42.950Z,15.55
2023-02-23T00:40:46.358Z,15.80
2023-02-23T00:42:52.295Z,17.67
2023-02-23T00:44:57.221Z,15.65
2023-02-23T00:47:00.022Z,15.75
2023-02-23T00:49:05.142Z,15.80
2023-02-23T00:51:07.866Z,16.10
2023-02-23T00:53:11.564Z,16.55
2023-02-23T00:55:16.212Z,14.23
2023-02-23T00:57:18.973Z,14.60
2023-02-23T00:59:21.752Z,15.43
2023-02-23T01:01:25.955Z,15.07
2023-02-23T01:03:29.879Z,15.52
2023-02-23T01:05:36.516Z,14.18
2023-02-23T01:07:39.698Z,13.07
2023-02-23T01:09:42.647Z,13.00
2023-02-23T01:11:47.175Z,14.25
2023-02-23T01:13:54.117Z,14.38
2023-02-23T01:15:56.932Z,18.60
2023-02-23T01:18:01.667Z,15.80
2023-02-23T01:20:13.150Z,17.70
2023-02-23T01:22:17.261Z,15.00
2023-02-23T01:24:21.391Z,16.02
2023-02-23T01:26:27.668Z,15.45
2023-02-23T01:28:30.704Z,16.58
2023-02-23T01:30:33.527Z,15.80
2023-02-23T01:32:37.567Z,16.65
2023-02-23T01:34:40.371Z,18.92
2023-02-23T01:36:44.688Z,15.20
2023-02-23T01:38:49.153Z,15.25
2023-02-23T01:40:52.025Z,14.30
2023-02-23T01:42:54.886Z,15.85
2023-02-23T01:45:22.610Z,13.40
2023-02-23T01:47:26.800Z,13.48
2023-02-23T01:49:31.872Z,13.60
2023-02-23T01:51:40.145Z,14.45
2023-02-23T01:53:46.048Z,14.98
2023-02-23T01:55:55.029Z,14.45
2023-02-23T01:58:15.129Z,13.25
2023-02-23T02:00:20.165Z,13.52
2023-02-23T02:02:33.676Z,13.73
2023-02-23T02:04:44.499Z,14.70
2023-02-23T02:06:53.349Z,14.38
2023-02-23T02:09:00.023Z,14.73
2023-02-23T02:11:15.449Z,15.90
2023-02-23T02:13:22.966Z,18.33
2023-02-23T02:15:34.692Z,16.65
2023-02-23T02:17:46.867Z,14.25
2023-02-23T02:20:32.772Z,14.13
2023-02-23T02:23:09.645Z,13.68
2023-02-23T02:25:33.750Z,13.50
2023-02-23T02:27:57.375Z,13.88
2023-02-23T02:30:37.448Z,13.15
2023-02-23T02:33:11.019Z,13.05
2023-02-23T02:35:42.650Z,14.18
2023-02-23T02:38:01.647Z,15.40
2023-02-23T02:40:16.689Z,12.52
2023-02-23T02:42:23.690Z,12.98
2023-02-23T02:44:33.267Z,13.40
2023-02-23T02:46:39.322Z,13.98
2023-02-23T02:48:50.390Z,12.63
2023-02-23T02:50:57.235Z,12.00
2023-02-23T02:53:06.630Z,12.07
2023-02-23T02:55:16.096Z,11.80
2023-02-23T02:57:20.968Z,11.60
2023-02-23T02:59:42.015Z,12.73
2023-02-23T03:02:03.030Z,13.05
2023-02-23T03:04:39.238Z,12.95
2023-02-23T03:07:05.871Z,13.70
2023-02-23T03:09:37.457Z,13.55
2023-02-23T03:12:03.605Z,14.00
2023-02-23T03:14:39.052Z,14.48
2023-02-23T03:17:05.678Z,14.07
2023-02-23T03:19:33.285Z,15.00
2023-02-23T03:22:07.684Z,13.77
2023-02-23T03:24:42.007Z,13.70
2023-02-23T03:27:14.393Z,14.27
2023-02-23T03:29:42.320Z,15.13
2023-02-23T03:32:10.074Z,15.50
2023-02-23T03:34:35.881Z,16.52
2023-02-23T03:37:01.978Z,19.38
2023-02-23T03:39:32.217Z,15.63
2023-02-23T03:41:55.764Z,17.80
2023-02-23T03:44:20.737Z,20.67
2023-02-23T03:46:45.403Z,22.60
2023-02-23T03:49:08.972Z,25.27
2023-02-23T03:51:32.405Z,19.77
2023-02-23T03:53:59.204Z,13.25
2023-02-23T03:56:20.579Z,12.60
2023-02-23T03:58:48.777Z,13.23
2023-02-23T04:01:11.542Z,11.73
2023-02-23T04:03:35.608Z,11.70
2023-02-23T04:05:59.772Z,11.30
2023-02-23T04:08:22.494Z,10.82
2023-02-23T04:10:47.429Z,12.38
2023-02-23T04:13:15.084Z,11.77
2023-02-23T04:15:26.551Z,13.13
2023-02-23T04:17:35.568Z,10.95
2023-02-23T04:19:38.333Z,11.20
2023-02-23T04:21:41.090Z,11.60
2023-02-23T04:23:44.335Z,10.38
2023-02-23T04:25:47.893Z,11.15
2023-02-23T04:27:50.892Z,11.00
2023-02-23T04:29:53.632Z,11.52
2023-02-23T04:31:57.838Z,10.73
2023-02-23T04:34:00.664Z,11.52
2023-02-23T04:36:03.427Z,10.80
2023-02-23T04:38:06.417Z,10.27
2023-02-23T04:40:10.587Z,11.23
2023-02-23T04:42:13.895Z,10.27
2023-02-23T04:44:16.734Z,10.20
2023-02-23T04:46:19.491Z,10.07
2023-02-23T04:48:25.107Z,10.25
2023-02-23T04:50:27.865Z,10.45
2023-02-23T04:52:31.397Z,10.10
2023-02-23T04:54:34.284Z,9.75
2023-02-23T04:56:37.167Z,9.23
2023-02-23T04:58:39.992Z,9.80
2023-02-23T05:00:42.987Z,10.25
2023-02-23T05:02:46.389Z,10.20
2023-02-23T05:04:50.443Z,9.57
2023-02-23T05:06:53.235Z,9.85
2023-02-23T05:08:55.989Z,9.23
2023-02-23T05:10:58.722Z,9.80
2023-02-23T05:13:02.106Z,9.55
2023-02-23T05:15:05.486Z,9.68
2023-02-23T05:17:08.813Z,10.48
2023-02-23T05:19:11.668Z,9.48
2023-02-23T05:21:15.803Z,10.23
2023-02-23T05:23:19.428Z,10.05
2023-02-23T05:25:22.143Z,9.68
2023-02-23T05:27:24.871Z,9.20
2023-02-23T05:29:27.696Z,8.65
2023-02-23T05:31:30.583Z,8.25
2023-02-23T05:33:34.588Z,9.20
2023-02-23T05:35:41.642Z,7.82
2023-02-23T05:37:45.729Z,9.95
2023-02-23T05:39:48.651Z,8.95
2023-02-23T05:41:51.397Z,8.35
2023-02-23T05:43:55.631Z,7.25
2023-02-23T05:45:58.610Z,7.35
2023-02-23T05:48:01.517Z,7.70
2023-02-23T05:50:04.975Z,8.02
2023-02-23T05:52:08.370Z,10.35
2023-02-23T05:54:13.385Z,9.73
2023-02-23T05:56:20.684Z,11.10
2023-02-23T05:58:23.917Z,10.05
2023-02-23T06:00:26.795Z,13.98
2023-02-23T06:02:29.578Z,10.77
2023-02-23T06:04:32.386Z,16.05
2023-02-23T06:06:35.139Z,11.50
2023-02-23T06:08:38.018Z,19.60
2023-02-23T06:10:42.081Z,15.55
2023-02-23T06:12:44.820Z,18.83
2023-02-23T06:14:47.553Z,15.40
2023-02-23T06:16:50.305Z,13.60
2023-02-23T06:18:53.095Z,14.38
2023-02-23T06:20:58.257Z,12.70
2023-02-23T06:23:01.015Z,13.77
2023-02-23T06:25:04.927Z,16.00
2023-02-23T06:27:09.109Z,11.35
2023-02-23T06:29:12.339Z,10.43
2023-02-23T06:31:15.123Z,9.07
2023-02-23T06:33:17.877Z,9.18
2023-02-23T06:35:20.816Z,10.40
2023-02-23T06:37:23.649Z,9.65
2023-02-23T06:39:26.416Z,21.70
2023-02-23T06:41:29.154Z,21.85
2023-02-23T06:43:33.422Z,20.98
2023-02-23T06:45:36.162Z,18.42
2023-02-23T06:47:38.950Z,14.48
2023-02-23T06:49:41.628Z,14.57
2023-02-23T06:51:44.355Z,17.52
2023-02-23T06:53:47.188Z,12.88
2023-02-23T06:55:49.936Z,12.25
2023-02-23T06:57:54.245Z,14.05
2023-02-23T06:59:58.366Z,14.30
2023-02-23T07:02:01.732Z,18.02
2023-02-23T07:04:05.443Z,23.45
2023-02-23T07:06:08.271Z,21.05
2023-02-23T07:08:11.349Z,17.38
2023-02-23T07:10:14.089Z,16.27
2023-02-23T07:12:16.926Z,19.92
2023-02-23T07:14:26.440Z,25.42
2023-02-23T07:16:30.938Z,9.48
2023-02-23T07:18:33.788Z,5.97
2023-02-23T07:20:36.519Z,6.53
2023-02-23T07:22:40.066Z,12.05
2023-02-23T07:24:42.827Z,8.57
2023-02-23T07:26:47.313Z,8.88
2023-02-23T07:28:50.189Z,6.93
2023-02-23T07:30:52.953Z,7.40
2023-02-23T07:32:57.058Z,6.22
2023-02-23T07:34:59.799Z,6.00
2023-02-23T07:37:02.543Z,6.22
2023-02-23T07:39:06.079Z,6.53
2023-02-23T07:41:08.791Z,6.65
2023-02-23T07:43:11.528Z,5.88
2023-02-23T07:45:14.316Z,6.55
2023-02-23T07:47:17.044Z,6.43
2023-02-23T07:49:21.143Z,6.90
2023-02-23T07:51:23.862Z,8.48
2023-02-23T07:53:27.840Z,8.20
2023-02-23T07:55:30.601Z,9.15
2023-02-23T07:57:33.563Z,8.50
2023-02-23T07:59:37.012Z,7.57
2023-02-23T08:01:39.736Z,7.78
2023-02-23T08:03:49.335Z,6.80
2023-02-23T08:05:53.472Z,7.47
2023-02-23T08:07:57.842Z,6.82
2023-02-23T08:10:00.612Z,6.32
2023-02-23T08:12:03.462Z,5.85
2023-02-23T08:14:06.189Z,5.85
2023-02-23T08:16:09.505Z,5.68
2023-02-23T08:18:12.399Z,5.68
2023-02-23T08:20:15.376Z,6.05
2023-02-23T08:22:19.484Z,5.95
2023-02-23T08:24:22.210Z,5.90
2023-02-23T08:26:25.484Z,6.07
2023-02-23T08:28:29.384Z,5.45
2023-02-23T08:30:32.452Z,6.82
2023-02-23T08:32:35.983Z,6.28
2023-02-23T08:34:40.353Z,6.03
2023-02-23T08:36:45.715Z,6.18
2023-02-23T08:38:50.425Z,5.88
2023-02-23T08:40:53.327Z,6.10
2023-02-23T08:42:56.049Z,5.88
2023-02-23T08:44:59.191Z,5.78
2023-02-23T08:47:04.663Z,5.90
2023-02-23T08:49:10.608Z,5.65
2023-02-23T08:51:14.606Z,5.30
2023-02-23T08:53:17.412Z,5.40
2023-02-23T08:55:21.759Z,4.90
2023-02-23T08:57:24.567Z,4.85
2023-02-23T08:59:28.042Z,4.90
2023-02-23T09:01:30.792Z,5.30
2023-02-23T09:03:38.292Z,5.35
2023-02-23T09:05:43.311Z,5.40
2023-02-23T09:07:47.168Z,4.82
2023-02-23T09:09:54.985Z,4.60
2023-02-23T09:12:00.002Z,5.00
2023-02-23T09:14:02.902Z,5.20
2023-02-23T09:16:07.694Z,5.00
2023-02-23T09:18:14.700Z,5.32
2023-02-23T09:20:18.161Z,4.82
2023-02-23T09:22:20.870Z,5.85
2023-02-23T09:24:23.650Z,7.07
2023-02-23T09:26:28.493Z,7.93
2023-02-23T09:28:33.956Z,6.18
2023-02-23T09:30:37.034Z,6.75
2023-02-23T09:32:39.818Z,8.70
2023-02-23T09:34:42.646Z,10.10
2023-02-23T09:36:45.388Z,6.32
2023-02-23T09:38:52.314Z,8.48
2023-02-23T09:40:55.538Z,5.72
2023-02-23T09:43:03.711Z,6.20
2023-02-23T09:45:27.142Z,5.68
2023-02-23T09:47:40.397Z,5.60
2023-02-23T09:49:48.077Z,4.85
2023-02-23T09:51:57.565Z,5.13
2023-02-23T09:54:04.406Z,5.35
2023-02-23T09:56:13.943Z,5.90
2023-02-23T09:58:23.852Z,5.90
2023-02-23T10:00:28.353Z,6.07
2023-02-23T10:02:39.658Z,5.33
2023-02-23T10:04:47.670Z,6.40
2023-02-23T10:06:58.926Z,5.63
2023-02-23T10:09:14.504Z,6.57
2023-02-23T10:11:28.143Z,6.07
2023-02-23T10:13:45.047Z,6.67
2023-02-23T10:15:55.889Z,6.47
2023-02-23T10:18:13.012Z,6.33
2023-02-23T10:20:25.529Z,6.07
2023-02-23T10:22:29.845Z,6.77
2023-02-23T10:24:37.682Z,6.30
2023-02-23T10:26:44.186Z,5.30
2023-02-23T10:28:47.750Z,5.53
2023-02-23T10:30:53.692Z,5.33
2023-02-23T10:33:02.628Z,5.43
2023-02-23T10:35:12.156Z,5.40
2023-02-23T10:37:18.343Z,5.40
2023-02-23T10:39:21.062Z,4.83
2023-02-23T10:41:24.390Z,5.10
2023-02-23T10:43:27.085Z,4.97
2023-02-23T10:45:32.072Z,5.83
2023-02-23T10:47:37.532Z,5.20
2023-02-23T10:49:45.101Z,5.37
2023-02-23T10:51:47.893Z,6.10
2023-02-23T10:53:52.819Z,6.23
2023-02-23T10:56:05.930Z,5.73
2023-02-23T10:58:17.006Z,5.73
2023-02-23T11:00:31.008Z,4.90
2023-02-23T11:02:36.379Z,5.30
2023-02-23T11:04:53.036Z,5.40
2023-02-23T11:07:09.423Z,5.73
2023-02-23T11:09:41.277Z,5.17
2023-02-23T11:11:57.961Z,4.77
2023-02-23T11:14:08.155Z,5.13
2023-02-23T11:16:13.841Z,5.23
2023-02-23T11:18:22.670Z,5.07
2023-02-23T11:20:33.273Z,5.23
2023-02-23T11:22:38.233Z,5.27
2023-02-23T11:24:42.391Z,6.17
2023-02-23T11:26:46.255Z,7.93
2023-02-23T11:28:52.385Z,5.50
2023-02-23T11:30:55.173Z,5.50
2023-02-23T11:33:09.731Z,5.43
2023-02-23T11:35:27.434Z,5.23
2023-02-23T11:37:32.446Z,4.90
2023-02-23T11:39:35.757Z,5.03
2023-02-23T11:41:38.502Z,5.97
2023-02-23T11:43:49.883Z,5.23
2023-02-23T11:45:56.467Z,5.80
2023-02-23T11:48:00.674Z,5.80
2023-02-23T11:50:05.664Z,8.37
2023-02-23T11:52:15.687Z,9.33
2023-02-23T11:54:26.020Z,7.40
2023-02-23T11:56:31.752Z,6.57
2023-02-23T11:58:40.128Z,6.63
2023-02-23T12:00:43.713Z,6.77
2023-02-23T12:02:51.471Z,6.40
2023-02-23T12:05:05.353Z,5.63
2023-02-23T12:07:29.565Z,6.27
2023-02-23T12:09:36.744Z,6.53
2023-02-23T12:11:44.827Z,5.97
2023-02-23T12:13:51.816Z,6.17
2023-02-23T12:15:59.766Z,6.13
2023-02-23T12:18:09.293Z,6.13
2023-02-23T12:20:16.735Z,6.03
2023-02-23T12:22:23.856Z,5.83
2023-02-23T12:24:33.168Z,6.27
2023-02-23T12:26:46.325Z,6.40
2023-02-23T12:28:54.074Z,6.17
2023-02-23T12:31:02.895Z,5.83
2023-02-23T12:33:11.336Z,6.17
2023-02-23T12:35:20.276Z,6.37
2023-02-23T12:37:37.108Z,7.70
2023-02-23T12:39:44.377Z,6.20
2023-02-23T12:41:56.805Z,7.73
2023-02-23T12:44:04.382Z,6.43
2023-02-23T12:46:14.265Z,8.80
2023-02-23T12:48:32.424Z,7.23
2023-02-23T12:50:43.221Z,9.97
2023-02-23T12:52:53.692Z,8.97
2023-02-23T12:54:56.625Z,6.87
2023-02-23T12:57:12.912Z,6.87
2023-02-23T12:59:32.905Z,7.10
2023-02-23T13:01:41.024Z,7.20
2023-02-23T13:04:10.711Z,5.10
2023-02-23T13:06:21.027Z,5.87
2023-02-23T13:08:30.246Z,5.00
2023-02-23T13:10:43.524Z,5.77
2023-02-23T13:12:57.895Z,5.73
2023-02-23T13:15:13.325Z,5.60
2023-02-23T13:17:32.943Z,5.90
2023-02-23T13:19:42.585Z,6.40
2023-02-23T13:21:51.265Z,6.83
2023-02-23T13:24:03.030Z,6.53
2023-02-23T13:26:17.559Z,6.27
2023-02-23T13:28:29.381Z,6.27
2023-02-23T13:30:33.478Z,5.90
2023-02-23T13:32:37.816Z,54.53
2023-02-23T13:34:44.030Z,8.90
2023-02-23T13:36:47.035Z,9.50
2023-02-23T13:39:18.475Z,10.07
2023-02-23T13:41:34.620Z,8.17
2023-02-23T13:43:47.433Z,9.40
2023-02-23T13:45:58.618Z,6.93
2023-02-23T13:48:07.839Z,7.10
2023-02-23T13:50:22.546Z,6.82
2023-02-23T13:52:31.736Z,7.45
2023-02-23T13:54:36.477Z,7.50
2023-02-23T13:56:44.315Z,6.75
2023-02-23T13:58:52.851Z,7.00
2023-02-23T14:01:06.439Z,7.32
2023-02-23T14:03:23.263Z,6.67
2023-02-23T14:05:29.961Z,6.95
2023-02-23T14:07:39.664Z,10.50
2023-02-23T14:09:48.356Z,7.30
2023-02-23T14:11:53.592Z,7.17
2023-02-23T14:14:02.684Z,7.10
2023-02-23T14:16:17.959Z,8.17
2023-02-23T14:18:33.139Z,6.70
2023-02-23T14:20:47.909Z,6.10
2023-02-23T14:23:17.083Z,5.90
2023-02-23T14:25:49.330Z,5.77
2023-02-23T14:28:00.465Z,6.30
2023-02-23T14:30:25.351Z,6.87
2023-02-23T14:32:30.812Z,6.20
2023-02-23T14:34:49.139Z,7.00
2023-02-23T14:36:56.399Z,5.37
2023-02-23T14:39:02.212Z,6.07
2023-02-23T14:41:09.824Z,6.63
2023-02-23T14:43:34.035Z,6.47
2023-02-23T14:45:40.036Z,6.90
2023-02-23T14:47:47.496Z,7.10
2023-02-23T14:49:53.056Z,6.97
2023-02-23T14:51:58.583Z,8.03
2023-02-23T14:54:01.742Z,7.10
2023-02-23T14:56:04.770Z,6.40
2023-02-23T14:58:24.087Z,7.70
2023-02-23T15:00:32.397Z,7.13
2023-02-23T15:02:45.892Z,5.83
2023-02-23T15:04:55.986Z,6.73
2023-02-23T15:07:01.651Z,5.30
2023-02-23T15:09:04.711Z,5.87
2023-02-23T15:11:12.575Z,5.97
2023-02-23T15:13:29.067Z,6.10
2023-02-23T15:15:31.932Z,5.90
2023-02-23T15:17:36.056Z,5.53
2023-02-23T15:19:39.278Z,6.07
2023-02-23T15:21:42.019Z,6.10
2023-02-23T15:23:45.809Z,6.70
2023-02-23T15:25:51.015Z,5.77
2023-02-23T15:27:55.973Z,5.57
2023-02-23T15:29:58.750Z,5.70
2023-02-23T15:32:15.951Z,5.83
2023-02-23T15:34:22.332Z,5.30
2023-02-23T15:36:29.381Z,4.78
2023-02-23T15:38:43.466Z,5.60
2023-02-23T15:40:56.618Z,6.57
2023-02-23T15:43:00.666Z,6.53
2023-02-23T15:45:05.798Z,4.83
2023-02-23T15:47:21.526Z,4.10
2023-02-23T15:49:27.947Z,4.30
2023-02-23T15:51:36.109Z,4.53
2023-02-23T15:53:42.130Z,4.60
2023-02-23T15:55:45.531Z,4.43
2023-02-23T15:57:53.878Z,5.60
2023-02-23T15:59:59.676Z,6.13
2023-02-23T16:02:04.042Z,6.07
2023-02-23T16:04:09.309Z,6.40
2023-02-23T16:06:24.232Z,7.27
2023-02-23T16:08:27.198Z,8.20
2023-02-23T16:10:31.117Z,7.87
2023-02-23T16:12:37.594Z,6.93
2023-02-23T16:14:45.849Z,8.20
2023-02-23T16:16:58.441Z,7.13
2023-02-23T16:19:15.385Z,6.97
2023-02-23T16:21:22.018Z,6.70
2023-02-23T16:23:34.130Z,5.83
2023-02-23T16:25:37.330Z,29.33
2023-02-23T16:27:40.434Z,24.93
2023-02-23T16:29:43.315Z,11.47
2023-02-23T16:31:49.333Z,7.17
2023-02-23T16:33:56.847Z,8.30
2023-02-23T16:36:19.437Z,6.50
2023-02-23T16:38:28.067Z,5.40
2023-02-23T16:40:31.320Z,5.90
2023-02-23T16:42:35.772Z,4.83
2023-02-23T16:44:43.701Z,4.97
2023-02-23T16:47:12.481Z,4.90
2023-02-23T16:49:15.236Z,4.30
2023-02-23T16:51:19.416Z,4.90
2023-02-23T16:53:23.227Z,6.40
2023-02-23T16:55:29.026Z,5.57
2023-02-23T16:57:39.450Z,5.57
2023-02-23T16:59:42.230Z,5.72
2023-02-23T17:01:46.668Z,6.95
2023-02-23T17:03:53.193Z,6.13
2023-02-23T17:05:56.433Z,5.68
2023-02-23T17:07:59.488Z,5.25
2023-02-23T17:10:02.398Z,5.10
2023-02-23T17:12:07.005Z,4.53
2023-02-23T17:14:11.852Z,5.15
2023-02-23T17:16:14.912Z,4.80
2023-02-23T17:18:18.109Z,5.47
2023-02-23T17:20:21.488Z,5.00
2023-02-23T17:22:24.286Z,4.97
2023-02-23T17:24:27.093Z,5.15
2023-02-23T17:26:29.940Z,4.70
2023-02-23T17:28:34.262Z,6.18
2023-02-23T17:30:39.248Z,5.97
2023-02-23T17:32:42.340Z,5.88
2023-02-23T17:34:45.218Z,6.35
2023-02-23T17:36:47.931Z,5.35
2023-02-23T17:38:50.828Z,5.68
2023-02-23T17:40:54.788Z,5.03
2023-02-23T17:42:59.369Z,4.93
2023-02-23T17:45:05.245Z,5.07
2023-02-23T17:47:08.138Z,5.63
2023-02-23T17:49:11.009Z,6.10
2023-02-23T17:51:16.722Z,6.32
2023-02-23T17:53:19.944Z,6.75
2023-02-23T17:55:23.715Z,5.18
2023-02-23T17:57:27.645Z,5.32
2023-02-23T17:59:30.422Z,4.72
2023-02-23T18:01:34.478Z,5.80
2023-02-23T18:03:38.465Z,5.75
2023-02-23T18:05:41.227Z,6.38
2023-02-23T18:07:46.486Z,7.38
2023-02-23T18:09:51.001Z,9.10
2023-02-23T18:11:53.712Z,6.68
2023-02-23T18:13:56.433Z,6.68
2023-02-23T18:16:01.666Z,4.78
2023-02-23T18:18:06.015Z,4.80
2023-02-23T18:20:13.974Z,5.10
2023-02-23T18:22:17.347Z,5.47
2023-02-23T18:24:20.876Z,6.57
2023-02-23T18:26:25.501Z,6.22
2023-02-23T18:28:28.333Z,6.38
2023-02-23T18:30:31.093Z,5.70
2023-02-23T18:32:33.892Z,4.82
2023-02-23T18:34:38.673Z,5.28
2023-02-23T18:36:42.593Z,7.18
2023-02-23T18:38:45.294Z,7.25
2023-02-23T18:40:47.985Z,9.00
2023-02-23T18:42:51.055Z,8.13
2023-02-23T18:44:53.754Z,6.30
2023-02-23T18:46:56.517Z,6.53
2023-02-23T18:48:59.763Z,6.88
2023-02-23T18:51:05.756Z,6.63
2023-02-23T18:53:09.062Z,6.75
2023-02-23T18:55:12.204Z,7.45
2023-02-23T18:57:16.046Z,8.30
2023-02-23T18:59:18.821Z,6.65
2023-02-23T19:01:24.329Z,9.05
2023-02-23T19:03:27.169Z,9.70
2023-02-23T19:05:30.098Z,13.30
2023-02-23T19:07:34.323Z,13.52
2023-02-23T19:09:40.715Z,10.80
2023-02-23T19:11:44.376Z,15.13
2023-02-23T19:13:47.098Z,10.88
2023-02-23T19:15:50.209Z,11.40
2023-02-23T19:17:54.358Z,9.88
2023-02-23T19:19:57.564Z,11.65
2023-02-23T19:22:00.286Z,19.25
2023-02-23T19:24:05.665Z,13.68
2023-02-23T19:26:08.664Z,17.50
2023-02-23T19:28:12.908Z,23.17
2023-02-23T19:30:15.761Z,17.00
2023-02-23T19:32:18.623Z,13.80
2023-02-23T19:34:21.326Z,12.77
2023-02-23T19:36:30.573Z,10.32
2023-02-23T19:38:33.441Z,8.90
2023-02-23T19:40:42.514Z,7.57
2023-02-23T19:42:46.033Z,8.85
2023-02-23T19:44:48.741Z,8.05
2023-02-23T19:46:51.583Z,8.35
2023-02-23T19:48:54.556Z,8.30
2023-02-23T19:50:57.413Z,7.75
2023-02-23T19:53:00.099Z,7.97
2023-02-23T19:55:02.931Z,7.80
2023-02-23T19:57:07.034Z,10.15
2023-02-23T19:59:09.853Z,13.73
2023-02-23T20:01:14.611Z,10.98
2023-02-23T20:03:19.843Z,8.88
2023-02-23T20:05:25.550Z,11.93
2023-02-23T20:07:28.389Z,11.25
2023-02-23T20:09:31.127Z,8.63
2023-02-23T20:11:34.230Z,7.63
2023-02-23T20:13:39.137Z,7.57
2023-02-23T20:15:41.945Z,7.40
2023-02-23T20:17:44.661Z,8.65
2023-02-23T20:19:47.407Z,10.05
2023-02-23T20:21:50.498Z,10.02
2023-02-23T20:23:55.378Z,11.57
2023-02-23T20:25:58.125Z,12.95
2023-02-23T20:28:00.859Z,10.00
2023-02-23T20:30:06.514Z,16.65
2023-02-23T20:32:09.512Z,12.20
2023-02-23T20:34:12.257Z,9.77
2023-02-23T20:36:14.995Z,9.52
2023-02-23T20:38:17.703Z,9.90
2023-02-23T20:40:23.024Z,9.32
2023-02-23T20:42:28.173Z,10.82
2023-02-23T20:44:32.891Z,10.73
2023-02-23T20:46:37.018Z,11.40
2023-02-23T20:48:39.978Z,11.23
2023-02-23T20:50:43.290Z,11.60
2023-02-23T20:52:46.652Z,11.10
2023-02-23T20:54:49.437Z,12.40
2023-02-23T20:56:58.829Z,11.40
2023-02-23T20:59:01.862Z,10.07
2023-02-23T21:01:06.754Z,11.60
2023-02-23T21:03:11.134Z,11.05
2023-02-23T21:05:14.807Z,13.68
2023-02-23T21:07:17.710Z,14.15
2023-02-23T21:09:22.043Z,12.32
2023-02-23T21:11:26.527Z,13.00
2023-02-23T21:13:29.358Z,13.00
2023-02-23T21:15:34.960Z,11.85
2023-02-23T21:17:38.470Z,14.80
2023-02-23T21:19:42.689Z,14.70
2023-02-23T21:21:48.079Z,14.20
2023-02-23T21:23:51.554Z,12.73
2023-02-23T21:25:54.292Z,12.52
2023-02-23T21:27:57.154Z,11.55
2023-02-23T21:30:00.658Z,11.50
2023-02-23T21:32:03.478Z,13.65
2023-02-23T21:34:07.008Z,12.93
2023-02-23T21:36:13.331Z,12.25
2023-02-23T21:38:16.062Z,13.13
2023-02-23T21:40:20.725Z,12.80
2023-02-23T21:42:24.089Z,12.43
2023-02-23T21:44:26.945Z,13.55
2023-02-23T21:46:29.811Z,13.88
2023-02-23T21:48:32.497Z,14.05
2023-02-23T21:50:35.242Z,13.60
2023-02-23T21:52:39.275Z,14.40
2023-02-23T21:54:46.564Z,14.50
2023-02-23T21:56:49.259Z,13.57
2023-02-23T21:58:53.342Z,15.73
2023-02-23T22:00:56.041Z,12.90
2023-02-23T22:02:58.746Z,15.13
2023-02-23T22:05:01.533Z,14.38
2023-02-23T22:07:04.280Z,11.93
2023-02-23T22:09:11.036Z,12.05
2023-02-23T22:11:17.444Z,11.23
2023-02-23T22:13:20.378Z,11.00
2023-02-23T22:15:27.112Z,10.77
2023-02-23T22:17:32.711Z,12.30
2023-02-23T22:19:35.656Z,11.48
2023-02-23T22:21:40.013Z,10.98
2023-02-23T22:23:46.805Z,11.60
2023-02-23T22:25:50.875Z,9.85
2023-02-23T22:27:53.585Z,10.70
2023-02-23T22:29:59.411Z,11.00
2023-02-23T22:32:02.550Z,10.95
2023-02-23T22:34:06.218Z,11.68
2023-02-23T22:36:12.951Z,11.77
2023-02-23T22:38:15.730Z,11.95
2023-02-23T22:40:19.020Z,12.20
2023-02-23T22:42:24.358Z,12.60
2023-02-23T22:44:27.190Z,11.68
2023-02-23T22:46:29.907Z,11.48
2023-02-23T22:48:32.715Z,11.25
2023-02-23T22:50:36.445Z,12.25
2023-02-23T22:52:39.267Z,12.55
2023-02-23T22:54:43.745Z,12.18
2023-02-23T22:56:46.954Z,12.43
2023-02-23T22:58:53.564Z,11.38
2023-02-23T23:01:04.091Z,12.02
2023-02-23T23:03:07.908Z,11.80
2023-02-23T23:05:13.268Z,11.18
2023-02-23T23:07:19.947Z,10.40
2023-02-23T23:09:22.736Z,9.52
2023-02-23T23:11:28.132Z,10.02
2023-02-23T23:13:32.861Z,11.40
2023-02-23T23:15:38.950Z,11.02
2023-02-23T23:17:46.269Z,16.00
2023-02-23T23:19:50.216Z,10.98
2023-02-23T23:21:55.563Z,10.85
2023-02-23T23:24:01.102Z,12.73
2023-02-23T23:26:03.867Z,11.32
2023-02-23T23:28:06.568Z,11.88
2023-02-23T23:30:11.462Z,11.90
2023-02-23T23:32:18.171Z,11.52
2023-02-23T23:34:21.835Z,12.00
2023-02-23T23:36:26.645Z,11.63
2023-02-23T23:38:29.539Z,11.07
2023-02-23T23:40:35.718Z,12.00
2023-02-23T23:42:38.984Z,11.02
2023-02-23T23:44:41.688Z,12.13
2023-02-23T23:46:45.953Z,10.85
2023-02-23T23:48:54.278Z,11.82
2023-02-23T23:50:58.133Z,20.10
2023-02-23T23:53:00.787Z,28.35
2023-02-23T23:55:04.580Z,27.40
2023-02-23T23:57:08.159Z,24.50
2023-02-23T23:59:16.302Z,12.77
